createdAt,value
2017-12-03T00:00:59.515Z,997.60
2017-12-03T00:02:06.348Z,997.53
2017-12-03T00:03:13.160Z,997.47
2017-12-03T00:04:19.936Z,997.47
2017-12-03T00:05:26.711Z,997.46
2017-12-03T00:06:33.447Z,997.40
2017-12-03T00:07:40.152Z,997.43
2017-12-03T00:08:46.995Z,997.40
2017-12-03T00:09:53.737Z,997.47
2017-12-03T00:11:00.466Z,997.42
2017-12-03T00:12:07.196Z,997.44
2017-12-03T00:13:14.047Z,997.42
2017-12-03T00:14:20.776Z,997.45
2017-12-03T00:15:27.500Z,997.47
2017-12-03T00:16:34.232Z,997.39
2017-12-03T00:17:41.072Z,997.47
2017-12-03T00:18:47.804Z,997.45
2017-12-03T00:19:54.520Z,997.44
2017-12-03T00:21:01.252Z,997.42
2017-12-03T00:22:07.960Z,997.53
2017-12-03T00:23:14.752Z,997.49
2017-12-03T00:24:21.492Z,997.44
2017-12-03T00:25:28.196Z,997.43
2017-12-03T00:26:34.936Z,997.41
2017-12-03T00:27:41.651Z,997.43
2017-12-03T00:28:48.440Z,997.42
2017-12-03T00:29:55.176Z,997.42
2017-12-03T00:31:02.322Z,997.42
2017-12-03T00:32:09.041Z,997.36
2017-12-03T00:33:15.820Z,997.34
2017-12-03T00:34:22.672Z,997.40
2017-12-03T00:35:29.764Z,997.34
2017-12-03T00:36:36.491Z,997.35
2017-12-03T00:37:43.207Z,997.27
2017-12-03T00:38:49.930Z,997.33
2017-12-03T00:39:56.676Z,997.37
2017-12-03T00:41:03.440Z,997.37
2017-12-03T00:42:16.496Z,997.42
2017-12-03T00:43:17.224Z,997.29
2017-12-03T00:44:23.938Z,997.34
2017-12-03T00:45:30.676Z,997.35
2017-12-03T00:46:37.422Z,997.37
2017-12-03T00:47:44.116Z,997.33
2017-12-03T00:48:50.920Z,997.32
2017-12-03T00:49:57.620Z,997.36
2017-12-03T00:51:04.324Z,997.41
2017-12-03T00:52:11.038Z,997.38
2017-12-03T00:53:17.753Z,997.34
2017-12-03T00:54:24.472Z,997.45
2017-12-03T00:55:31.316Z,997.37
2017-12-03T00:56:38.007Z,997.36
2017-12-03T00:57:44.735Z,997.36
2017-12-03T00:58:51.435Z,997.37
2017-12-03T00:59:58.261Z,997.30
2017-12-03T01:01:05.004Z,997.27
2017-12-03T01:02:11.729Z,997.24
2017-12-03T01:03:18.568Z,997.23
2017-12-03T01:04:25.296Z,997.35
2017-12-03T01:05:32.061Z,997.30
2017-12-03T01:06:38.760Z,997.29
2017-12-03T01:07:45.467Z,997.38
2017-12-03T01:08:52.207Z,997.40
2017-12-03T01:09:59.108Z,997.45
2017-12-03T01:11:05.831Z,997.38
2017-12-03T01:12:12.544Z,997.37
2017-12-03T01:13:19.252Z,997.33
2017-12-03T01:14:26.000Z,997.36
2017-12-03T01:15:32.799Z,997.38
2017-12-03T01:16:39.559Z,997.41
2017-12-03T01:17:46.294Z,997.29
2017-12-03T01:18:53.133Z,997.32
2017-12-03T01:19:59.893Z,997.38
2017-12-03T01:21:06.675Z,997.33
2017-12-03T01:22:13.373Z,997.31
2017-12-03T01:23:20.105Z,997.26
2017-12-03T01:24:26.792Z,997.25
2017-12-03T01:25:33.616Z,997.27
2017-12-03T01:26:40.416Z,997.27
2017-12-03T01:27:47.168Z,997.19
2017-12-03T01:28:53.858Z,997.25
2017-12-03T01:30:00.652Z,997.22
2017-12-03T01:31:07.365Z,997.21
2017-12-03T01:32:14.112Z,997.23
2017-12-03T01:33:20.817Z,997.17
2017-12-03T01:34:27.556Z,997.22
2017-12-03T01:35:34.352Z,997.27
2017-12-03T01:36:41.060Z,997.26
2017-12-03T01:37:47.789Z,997.27
2017-12-03T01:38:54.563Z,997.25
2017-12-03T01:40:01.401Z,997.24
2017-12-03T01:41:08.541Z,997.18
2017-12-03T01:42:15.292Z,997.23
2017-12-03T01:43:22.012Z,997.28
2017-12-03T01:44:28.775Z,997.20
2017-12-03T01:45:35.474Z,997.22
2017-12-03T01:46:42.248Z,997.22
2017-12-03T01:47:48.988Z,997.21
2017-12-03T01:48:55.701Z,997.24
2017-12-03T01:50:02.438Z,997.22
2017-12-03T01:51:09.185Z,997.22
2017-12-03T01:52:15.980Z,997.25
2017-12-03T01:53:22.700Z,997.21
2017-12-03T01:54:29.407Z,997.30
2017-12-03T01:55:36.133Z,997.32
2017-12-03T01:56:42.844Z,997.31
2017-12-03T01:57:49.709Z,997.36
2017-12-03T01:58:56.417Z,997.39
2017-12-03T02:00:03.177Z,997.38
2017-12-03T02:01:10.144Z,997.37
2017-12-03T02:02:16.904Z,997.38
2017-12-03T02:03:23.648Z,997.40
2017-12-03T02:04:30.361Z,997.47
2017-12-03T02:05:37.181Z,997.41
2017-12-03T02:06:43.952Z,997.38
2017-12-03T02:07:50.800Z,997.38
2017-12-03T02:08:57.644Z,997.41
2017-12-03T02:10:04.467Z,997.47
2017-12-03T02:11:11.218Z,997.37
2017-12-03T02:12:18.063Z,997.41
2017-12-03T02:13:24.792Z,997.40
2017-12-03T02:14:31.516Z,997.39
2017-12-03T02:15:38.228Z,997.41
2017-12-03T02:16:44.956Z,997.42
2017-12-03T02:17:51.644Z,997.41
2017-12-03T02:18:58.472Z,997.40
2017-12-03T02:20:06.496Z,997.32
2017-12-03T02:21:12.353Z,997.36
2017-12-03T02:22:19.117Z,997.34
2017-12-03T02:23:25.815Z,997.41
2017-12-03T02:24:32.519Z,997.33
2017-12-03T02:25:39.301Z,997.27
2017-12-03T02:26:46.021Z,997.32
2017-12-03T02:27:52.866Z,997.25
2017-12-03T02:28:59.596Z,997.28
2017-12-03T02:30:06.408Z,997.20
2017-12-03T02:31:13.125Z,997.27
2017-12-03T02:32:19.885Z,997.27
2017-12-03T02:33:26.604Z,997.29
2017-12-03T02:34:33.351Z,997.27
2017-12-03T02:35:40.109Z,997.22
2017-12-03T02:36:46.828Z,997.20
2017-12-03T02:37:53.640Z,997.25
2017-12-03T02:39:00.358Z,997.23
2017-12-03T02:40:07.249Z,997.19
2017-12-03T02:41:13.974Z,997.14
2017-12-03T02:42:20.704Z,997.20
2017-12-03T02:43:27.447Z,997.21
2017-12-03T02:44:34.227Z,997.18
2017-12-03T02:45:40.952Z,997.15
2017-12-03T02:46:47.715Z,997.20
2017-12-03T02:47:54.510Z,997.30
2017-12-03T02:49:01.358Z,997.22
2017-12-03T02:50:08.093Z,997.27
2017-12-03T02:51:14.832Z,997.26
2017-12-03T02:52:21.669Z,997.21
2017-12-03T02:53:28.424Z,997.15
2017-12-03T02:54:35.143Z,997.16
2017-12-03T02:55:41.938Z,997.14
2017-12-03T02:56:48.715Z,997.15
2017-12-03T02:57:55.508Z,997.07
2017-12-03T02:59:02.291Z,997.12
2017-12-03T03:00:09.029Z,997.16
2017-12-03T03:01:15.806Z,997.15
2017-12-03T03:02:22.589Z,997.19
2017-12-03T03:03:29.284Z,997.19
2017-12-03T03:04:36.009Z,997.15
2017-12-03T03:05:42.757Z,997.17
2017-12-03T03:06:49.489Z,997.16
2017-12-03T03:07:56.329Z,997.15
2017-12-03T03:09:03.049Z,997.15
2017-12-03T03:10:09.805Z,997.21
2017-12-03T03:11:16.564Z,997.09
2017-12-03T03:12:23.433Z,997.08
2017-12-03T03:13:30.128Z,997.15
2017-12-03T03:14:36.812Z,997.08
2017-12-03T03:15:43.556Z,997.04
2017-12-03T03:16:50.424Z,997.04
2017-12-03T03:17:57.191Z,997.15
2017-12-03T03:19:03.879Z,997.14
2017-12-03T03:20:10.576Z,997.17
2017-12-03T03:21:17.332Z,997.19
2017-12-03T03:22:24.040Z,997.15
2017-12-03T03:23:30.730Z,997.20
2017-12-03T03:24:37.416Z,997.11
2017-12-03T03:25:44.217Z,997.16
2017-12-03T03:26:50.937Z,997.16
2017-12-03T03:27:57.705Z,997.14
2017-12-03T03:29:04.425Z,997.07
2017-12-03T03:30:11.111Z,997.07
2017-12-03T03:31:17.934Z,997.03
2017-12-03T03:32:24.672Z,997.06
2017-12-03T03:33:31.381Z,997.05
2017-12-03T03:34:38.102Z,996.98
2017-12-03T03:35:44.793Z,996.95
2017-12-03T03:36:51.524Z,997.01
2017-12-03T03:37:58.309Z,996.94
2017-12-03T03:39:05.058Z,996.97
2017-12-03T03:40:11.829Z,997.04
2017-12-03T03:41:18.557Z,997.02
2017-12-03T03:42:25.397Z,996.99
2017-12-03T03:43:32.082Z,997.05
2017-12-03T03:44:38.813Z,997.05
2017-12-03T03:45:45.534Z,997.01
2017-12-03T03:46:52.244Z,997.06
2017-12-03T03:47:59.031Z,997.02
2017-12-03T03:49:05.733Z,997.07
2017-12-03T03:50:12.444Z,997.09
2017-12-03T03:51:19.158Z,997.05
2017-12-03T03:52:25.929Z,997.07
2017-12-03T03:53:32.630Z,997.08
2017-12-03T03:54:39.372Z,997.03
2017-12-03T03:55:46.072Z,997.03
2017-12-03T03:56:52.889Z,997.00
2017-12-03T03:57:59.686Z,996.97
2017-12-03T03:59:06.425Z,996.95
2017-12-03T04:00:13.096Z,996.98
2017-12-03T04:01:19.972Z,996.95
2017-12-03T04:02:26.860Z,997.03
2017-12-03T04:03:33.625Z,997.02
2017-12-03T04:04:40.413Z,997.04
2017-12-03T04:05:47.361Z,997.04
2017-12-03T04:06:54.097Z,996.97
2017-12-03T04:08:00.824Z,997.02
2017-12-03T04:09:07.697Z,996.96
2017-12-03T04:10:14.372Z,997.01
2017-12-03T04:11:21.084Z,996.97
2017-12-03T04:12:27.793Z,997.09
2017-12-03T04:13:34.562Z,997.07
2017-12-03T04:14:41.276Z,997.09
2017-12-03T04:15:48.100Z,997.11
2017-12-03T04:16:54.806Z,997.17
2017-12-03T04:18:01.536Z,997.12
2017-12-03T04:19:08.256Z,997.22
2017-12-03T04:20:14.953Z,997.17
2017-12-03T04:21:21.740Z,997.12
2017-12-03T04:22:28.403Z,997.20
2017-12-03T04:23:35.252Z,997.20
2017-12-03T04:24:41.960Z,997.18
2017-12-03T04:25:48.627Z,997.18
2017-12-03T04:26:55.308Z,997.20
2017-12-03T04:28:02.074Z,997.25
2017-12-03T04:29:08.781Z,997.16
2017-12-03T04:30:15.473Z,997.15
2017-12-03T04:31:22.259Z,997.24
2017-12-03T04:32:28.943Z,997.18
2017-12-03T04:33:35.781Z,997.18
2017-12-03T04:34:42.496Z,997.26
2017-12-03T04:35:49.244Z,997.22
2017-12-03T04:36:56.012Z,997.21
2017-12-03T04:38:02.857Z,997.16
2017-12-03T04:39:09.524Z,997.14
2017-12-03T04:40:16.328Z,997.12
2017-12-03T04:41:23.088Z,997.13
2017-12-03T04:42:30.257Z,997.17
2017-12-03T04:43:37.060Z,997.09
2017-12-03T04:44:43.913Z,997.11
2017-12-03T04:45:50.668Z,997.15
2017-12-03T04:46:57.472Z,997.15
2017-12-03T04:48:04.282Z,997.18
2017-12-03T04:49:11.014Z,997.17
2017-12-03T04:50:17.922Z,997.12
2017-12-03T04:51:24.681Z,997.11
2017-12-03T04:52:31.472Z,997.07
2017-12-03T04:53:38.337Z,997.10
2017-12-03T04:54:45.120Z,997.01
2017-12-03T04:55:51.908Z,997.06
2017-12-03T04:56:58.632Z,997.03
2017-12-03T04:58:05.404Z,997.05
2017-12-03T04:59:12.180Z,997.06
2017-12-03T05:00:18.961Z,997.07
2017-12-03T05:01:25.816Z,997.01
2017-12-03T05:02:32.518Z,997.02
2017-12-03T05:03:39.337Z,997.02
2017-12-03T05:04:46.172Z,997.01
2017-12-03T05:05:52.952Z,997.03
2017-12-03T05:06:59.736Z,997.07
2017-12-03T05:08:06.468Z,997.10
2017-12-03T05:09:13.324Z,997.04
2017-12-03T05:10:20.130Z,997.02
2017-12-03T05:11:26.897Z,997.09
2017-12-03T05:12:33.744Z,996.98
2017-12-03T05:13:40.544Z,997.01
2017-12-03T05:14:47.321Z,997.08
2017-12-03T05:15:55.636Z,996.99
2017-12-03T05:17:00.946Z,996.96
2017-12-03T05:18:07.732Z,996.97
2017-12-03T05:19:14.571Z,996.94
2017-12-03T05:20:21.384Z,996.94
2017-12-03T05:21:28.197Z,996.95
2017-12-03T05:22:35.006Z,996.85
2017-12-03T05:23:41.800Z,996.93
2017-12-03T05:24:48.597Z,996.86
2017-12-03T05:25:55.424Z,996.84
2017-12-03T05:27:02.250Z,996.91
2017-12-03T05:28:09.052Z,996.89
2017-12-03T05:29:15.980Z,996.99
2017-12-03T05:30:22.712Z,996.96
2017-12-03T05:31:29.415Z,996.89
2017-12-03T05:32:36.272Z,996.86
2017-12-03T05:33:43.066Z,996.83
2017-12-03T05:34:49.845Z,996.83
2017-12-03T05:35:56.688Z,996.88
2017-12-03T05:37:03.498Z,996.82
2017-12-03T05:38:10.312Z,996.88
2017-12-03T05:39:17.116Z,996.87
2017-12-03T05:40:23.911Z,996.88
2017-12-03T05:41:30.649Z,996.93
2017-12-03T05:42:37.560Z,996.96
2017-12-03T05:43:44.344Z,996.95
2017-12-03T05:44:51.096Z,996.95
2017-12-03T05:45:57.982Z,996.87
2017-12-03T05:47:04.757Z,996.93
2017-12-03T05:48:11.540Z,996.98
2017-12-03T05:49:18.245Z,996.99
2017-12-03T05:50:25.038Z,997.11
2017-12-03T05:51:31.830Z,997.11
2017-12-03T05:52:38.593Z,997.07
2017-12-03T05:53:45.358Z,997.08
2017-12-03T05:54:52.151Z,997.12
2017-12-03T05:55:58.913Z,997.13
2017-12-03T05:57:05.705Z,997.12
2017-12-03T05:58:12.511Z,997.15
2017-12-03T05:59:19.360Z,997.10
2017-12-03T06:00:26.304Z,997.14
2017-12-03T06:01:33.080Z,997.12
2017-12-03T06:02:39.812Z,997.22
2017-12-03T06:03:46.605Z,997.19
2017-12-03T06:04:53.388Z,997.20
2017-12-03T06:06:00.168Z,997.24
2017-12-03T06:07:06.972Z,997.21
2017-12-03T06:08:13.788Z,997.18
2017-12-03T06:09:20.573Z,997.24
2017-12-03T06:10:27.349Z,997.21
2017-12-03T06:11:34.080Z,997.26
2017-12-03T06:12:40.850Z,997.26
2017-12-03T06:13:47.535Z,997.16
2017-12-03T06:14:54.284Z,997.20
2017-12-03T06:16:01.048Z,997.21
2017-12-03T06:17:07.992Z,997.18
2017-12-03T06:18:14.927Z,997.14
2017-12-03T06:19:21.688Z,997.14
2017-12-03T06:20:28.485Z,997.16
2017-12-03T06:21:35.201Z,997.09
2017-12-03T06:22:41.955Z,997.15
2017-12-03T06:23:48.737Z,997.14
2017-12-03T06:24:55.437Z,997.16
2017-12-03T06:26:02.276Z,997.15
2017-12-03T06:27:09.166Z,997.10
2017-12-03T06:28:16.096Z,997.15
2017-12-03T06:29:22.929Z,997.12
2017-12-03T06:30:29.635Z,997.14
2017-12-03T06:31:36.420Z,997.10
2017-12-03T06:32:43.175Z,997.10
2017-12-03T06:33:49.993Z,997.14
2017-12-03T06:34:56.780Z,997.09
2017-12-03T06:36:03.532Z,997.09
2017-12-03T06:37:10.235Z,997.11
2017-12-03T06:38:17.058Z,997.14
2017-12-03T06:39:23.768Z,997.11
2017-12-03T06:40:30.523Z,997.17
2017-12-03T06:41:37.260Z,997.16
2017-12-03T06:42:44.010Z,997.17
2017-12-03T06:43:50.790Z,997.16
2017-12-03T06:44:57.538Z,997.21
2017-12-03T06:46:04.320Z,997.18
2017-12-03T06:47:11.081Z,997.21
2017-12-03T06:48:17.909Z,997.30
2017-12-03T06:49:24.613Z,997.24
2017-12-03T06:50:31.368Z,997.23
2017-12-03T06:51:38.131Z,997.28
2017-12-03T06:52:44.985Z,997.26
2017-12-03T06:53:51.757Z,997.26
2017-12-03T06:54:58.507Z,997.23
2017-12-03T06:56:05.221Z,997.30
2017-12-03T06:57:12.020Z,997.33
2017-12-03T06:58:18.720Z,997.28
2017-12-03T06:59:25.484Z,997.33
2017-12-03T07:00:32.260Z,997.33
2017-12-03T07:01:39.092Z,997.30
2017-12-03T07:02:45.841Z,997.28
2017-12-03T07:03:52.664Z,997.26
2017-12-03T07:04:59.378Z,997.32
2017-12-03T07:06:06.148Z,997.30
2017-12-03T07:07:12.920Z,997.24
2017-12-03T07:08:19.704Z,997.32
2017-12-03T07:09:26.452Z,997.32
2017-12-03T07:10:33.480Z,997.33
2017-12-03T07:11:40.220Z,997.31
2017-12-03T07:12:47.012Z,997.36
2017-12-03T07:13:53.795Z,997.29
2017-12-03T07:15:00.573Z,997.28
2017-12-03T07:16:07.441Z,997.23
2017-12-03T07:17:14.211Z,997.24
2017-12-03T07:18:20.927Z,997.32
2017-12-03T07:19:27.737Z,997.34
2017-12-03T07:20:34.488Z,997.32
2017-12-03T07:21:41.280Z,997.35
2017-12-03T07:22:48.072Z,997.34
2017-12-03T07:23:55.008Z,997.34
2017-12-03T07:25:01.793Z,997.30
2017-12-03T07:26:08.533Z,997.31
2017-12-03T07:27:15.356Z,997.31
2017-12-03T07:28:22.045Z,997.30
2017-12-03T07:29:28.887Z,997.33
2017-12-03T07:30:35.651Z,997.33
2017-12-03T07:31:42.450Z,997.29
2017-12-03T07:32:49.196Z,997.33
2017-12-03T07:33:55.952Z,997.25
2017-12-03T07:35:02.768Z,997.25
2017-12-03T07:36:09.536Z,997.28
2017-12-03T07:37:16.312Z,997.24
2017-12-03T07:38:23.089Z,997.17
2017-12-03T07:39:29.972Z,997.20
2017-12-03T07:40:36.761Z,997.22
2017-12-03T07:41:43.544Z,997.28
2017-12-03T07:42:50.400Z,997.29
2017-12-03T07:43:57.125Z,997.35
2017-12-03T07:45:03.988Z,997.30
2017-12-03T07:46:10.833Z,997.36
2017-12-03T07:47:17.604Z,997.32
2017-12-03T07:48:24.416Z,997.38
2017-12-03T07:49:31.263Z,997.34
2017-12-03T07:50:38.077Z,997.33
2017-12-03T07:51:44.924Z,997.33
2017-12-03T07:52:51.752Z,997.29
2017-12-03T07:53:58.732Z,997.38
2017-12-03T07:55:05.688Z,997.41
2017-12-03T07:56:12.472Z,997.37
2017-12-03T07:57:19.252Z,997.38
2017-12-03T07:58:25.969Z,997.42
2017-12-03T07:59:32.893Z,997.38
2017-12-03T08:00:39.714Z,997.43
2017-12-03T08:01:46.383Z,997.43
2017-12-03T08:02:53.109Z,997.41
2017-12-03T08:03:59.882Z,997.42
2017-12-03T08:05:06.732Z,997.38
2017-12-03T08:06:13.538Z,997.37
2017-12-03T08:07:20.252Z,997.32
2017-12-03T08:08:27.012Z,997.30
2017-12-03T08:09:33.860Z,997.36
2017-12-03T08:10:40.637Z,997.31
2017-12-03T08:11:47.393Z,997.35
2017-12-03T08:12:54.271Z,997.35
2017-12-03T08:14:01.068Z,997.37
2017-12-03T08:15:07.869Z,997.40
2017-12-03T08:16:14.740Z,997.43
2017-12-03T08:17:21.584Z,997.43
2017-12-03T08:18:28.368Z,997.43
2017-12-03T08:19:35.162Z,997.44
2017-12-03T08:20:41.876Z,997.45
2017-12-03T08:21:48.725Z,997.41
2017-12-03T08:22:55.696Z,997.43
2017-12-03T08:24:02.514Z,997.50
2017-12-03T08:25:09.431Z,997.56
2017-12-03T08:26:16.304Z,997.52
2017-12-03T08:27:23.320Z,997.59
2017-12-03T08:28:30.089Z,997.58
2017-12-03T08:29:36.956Z,997.60
2017-12-03T08:30:43.730Z,997.67
2017-12-03T08:31:50.532Z,997.65
2017-12-03T08:32:57.256Z,997.68
2017-12-03T08:34:04.017Z,997.71
2017-12-03T08:35:10.826Z,997.69
2017-12-03T08:36:17.821Z,997.63
2017-12-03T08:37:24.717Z,997.63
2017-12-03T08:38:31.489Z,997.69
2017-12-03T08:39:38.288Z,997.67
2017-12-03T08:40:45.109Z,997.68
2017-12-03T08:41:51.872Z,997.74
2017-12-03T08:42:58.709Z,997.64
2017-12-03T08:44:05.493Z,997.64
2017-12-03T08:45:12.300Z,997.65
2017-12-03T08:46:19.076Z,997.68
2017-12-03T08:47:25.886Z,997.64
2017-12-03T08:48:32.788Z,997.60
2017-12-03T08:49:39.566Z,997.66
2017-12-03T08:50:46.320Z,997.75
2017-12-03T08:51:53.056Z,997.69
2017-12-03T08:52:59.946Z,997.60
2017-12-03T08:54:06.768Z,997.58
2017-12-03T08:55:13.591Z,997.60
2017-12-03T08:56:20.368Z,997.60
2017-12-03T08:57:27.221Z,997.65
2017-12-03T08:58:33.953Z,997.67
2017-12-03T08:59:40.805Z,997.59
2017-12-03T09:00:47.620Z,997.64
2017-12-03T09:01:54.470Z,997.64
2017-12-03T09:03:01.237Z,997.66
2017-12-03T09:04:08.094Z,997.63
2017-12-03T09:05:14.849Z,997.73
2017-12-03T09:06:21.704Z,997.73
2017-12-03T09:07:28.466Z,997.65
2017-12-03T09:08:35.540Z,997.64
2017-12-03T09:09:14.479Z,997.59
2017-12-03T09:10:21.273Z,997.63
2017-12-03T09:11:28.016Z,997.66
2017-12-03T09:12:34.755Z,997.69
2017-12-03T09:13:41.464Z,997.67
2017-12-03T09:14:48.448Z,997.72
2017-12-03T09:15:55.224Z,997.70
2017-12-03T09:17:02.119Z,997.61
2017-12-03T09:18:08.859Z,997.73
2017-12-03T09:19:15.712Z,997.69
2017-12-03T09:20:22.444Z,997.65
2017-12-03T09:21:29.223Z,997.73
2017-12-03T09:22:36.017Z,997.68
2017-12-03T09:23:42.868Z,997.71
2017-12-03T09:24:49.656Z,997.71
2017-12-03T09:25:56.448Z,997.69
2017-12-03T09:27:03.236Z,997.75
2017-12-03T09:28:10.117Z,997.71
2017-12-03T09:29:16.881Z,997.75
2017-12-03T09:30:23.792Z,997.78
2017-12-03T09:31:30.597Z,997.73
2017-12-03T09:32:37.373Z,997.84
2017-12-03T09:33:44.131Z,997.81
2017-12-03T09:34:51.011Z,997.75
2017-12-03T09:35:57.861Z,997.83
2017-12-03T09:37:04.608Z,997.74
2017-12-03T09:38:11.452Z,997.77
2017-12-03T09:39:18.295Z,997.84
2017-12-03T09:40:25.099Z,997.84
2017-12-03T09:41:31.932Z,997.77
2017-12-03T09:42:38.736Z,997.76
2017-12-03T09:43:45.521Z,997.76
2017-12-03T09:44:57.560Z,997.85
2017-12-03T09:46:04.332Z,997.84
2017-12-03T09:47:06.224Z,997.87
2017-12-03T09:48:13.065Z,997.89
2017-12-03T09:49:19.838Z,997.84
2017-12-03T09:50:26.597Z,997.86
2017-12-03T09:51:33.433Z,997.85
2017-12-03T09:52:40.216Z,997.82
2017-12-03T09:53:47.052Z,997.85
2017-12-03T09:54:53.841Z,997.79
2017-12-03T09:56:00.609Z,997.85
2017-12-03T09:57:07.536Z,997.81
2017-12-03T09:58:14.436Z,997.86
2017-12-03T09:59:21.305Z,997.84
2017-12-03T10:00:28.045Z,997.84
2017-12-03T10:01:34.920Z,997.89
2017-12-03T10:02:41.792Z,997.85
2017-12-03T10:03:48.501Z,997.91
2017-12-03T10:04:55.209Z,997.91
2017-12-03T10:06:01.992Z,997.89
2017-12-03T10:07:08.884Z,997.85
2017-12-03T10:08:15.645Z,997.86
2017-12-03T10:09:22.396Z,997.84
2017-12-03T10:10:29.360Z,997.82
2017-12-03T10:11:36.150Z,997.90
2017-12-03T10:12:43.133Z,997.90
2017-12-03T10:13:49.927Z,997.83
2017-12-03T10:14:56.740Z,997.83
2017-12-03T10:16:04.142Z,997.72
2017-12-03T10:17:10.674Z,997.79
2017-12-03T10:18:17.755Z,997.75
2017-12-03T10:19:24.604Z,997.77
2017-12-03T10:20:31.395Z,997.72
2017-12-03T10:21:38.313Z,997.72
2017-12-03T10:22:45.246Z,997.67
2017-12-03T10:23:52.421Z,997.68
2017-12-03T10:24:59.256Z,997.70
2017-12-03T10:26:06.072Z,997.64
2017-12-03T10:27:12.849Z,997.68
2017-12-03T10:28:19.950Z,997.65
2017-12-03T10:29:26.860Z,997.64
2017-12-03T10:30:33.544Z,997.71
2017-12-03T10:31:40.265Z,997.63
2017-12-03T10:32:47.069Z,997.63
2017-12-03T10:33:53.944Z,997.68
2017-12-03T10:35:00.728Z,997.65
2017-12-03T10:36:07.580Z,997.65
2017-12-03T10:37:14.361Z,997.70
2017-12-03T10:38:21.148Z,997.70
2017-12-03T10:39:27.897Z,997.66
2017-12-03T10:40:34.631Z,997.60
2017-12-03T10:41:41.328Z,997.73
2017-12-03T10:42:48.148Z,997.72
2017-12-03T10:43:54.845Z,997.70
2017-12-03T10:45:01.549Z,997.63
2017-12-03T10:46:08.356Z,997.59
2017-12-03T10:47:15.143Z,997.62
2017-12-03T10:48:21.937Z,997.65
2017-12-03T10:49:28.644Z,997.67
2017-12-03T10:50:35.473Z,997.63
2017-12-03T10:51:42.296Z,997.64
2017-12-03T10:52:48.972Z,997.57
2017-12-03T10:53:55.717Z,997.51
2017-12-03T10:55:02.426Z,997.55
2017-12-03T10:56:09.157Z,997.58
2017-12-03T10:57:15.865Z,997.60
2017-12-03T10:58:22.977Z,997.60
2017-12-03T10:59:29.740Z,997.67
2017-12-03T11:00:36.489Z,997.64
2017-12-03T11:01:43.262Z,997.60
2017-12-03T11:02:50.013Z,997.56
2017-12-03T11:03:56.818Z,997.50
2017-12-03T11:05:03.564Z,997.53
2017-12-03T11:06:10.313Z,997.52
2017-12-03T11:07:17.132Z,997.49
2017-12-03T11:08:23.972Z,997.47
2017-12-03T11:09:30.810Z,997.47
2017-12-03T11:10:37.718Z,997.49
2017-12-03T11:11:44.403Z,997.53
2017-12-03T11:12:51.112Z,997.51
2017-12-03T11:13:57.836Z,997.55
2017-12-03T11:15:04.576Z,997.47
2017-12-03T11:16:11.275Z,997.47
2017-12-03T11:17:18.036Z,997.42
2017-12-03T11:18:24.815Z,997.43
2017-12-03T11:19:31.641Z,997.41
2017-12-03T11:20:38.353Z,997.31
2017-12-03T11:21:45.060Z,997.28
2017-12-03T11:22:51.896Z,997.32
2017-12-03T11:23:58.588Z,997.31
2017-12-03T11:25:05.307Z,997.30
2017-12-03T11:26:12.020Z,997.26
2017-12-03T11:27:18.740Z,997.33
2017-12-03T11:28:25.451Z,997.30
2017-12-03T11:29:32.297Z,997.30
2017-12-03T11:30:39.064Z,997.34
2017-12-03T11:31:45.805Z,997.27
2017-12-03T11:32:52.565Z,997.37
2017-12-03T11:33:59.415Z,997.30
2017-12-03T11:35:06.206Z,997.31
2017-12-03T11:36:13.035Z,997.30
2017-12-03T11:37:19.919Z,997.30
2017-12-03T11:38:26.692Z,997.29
2017-12-03T11:39:33.368Z,997.23
2017-12-03T11:40:40.156Z,997.19
2017-12-03T11:41:46.965Z,997.23
2017-12-03T11:42:53.653Z,997.18
2017-12-03T11:44:00.371Z,997.23
2017-12-03T11:45:07.116Z,997.17
2017-12-03T11:46:13.865Z,997.11
2017-12-03T11:47:20.711Z,997.12
2017-12-03T11:48:27.396Z,997.04
2017-12-03T11:49:34.076Z,997.05
2017-12-03T11:50:40.801Z,997.04
2017-12-03T11:51:47.597Z,997.02
2017-12-03T11:52:54.281Z,997.08
2017-12-03T11:54:01.041Z,997.08
2017-12-03T11:55:07.785Z,997.09
2017-12-03T11:56:14.535Z,997.09
2017-12-03T11:57:21.224Z,997.01
2017-12-03T11:58:27.910Z,997.07
2017-12-03T11:59:34.642Z,997.02
2017-12-03T12:00:41.391Z,997.07
2017-12-03T12:01:48.152Z,997.04
2017-12-03T12:02:55.299Z,997.02
2017-12-03T12:04:01.573Z,997.00
2017-12-03T12:05:08.317Z,996.98
2017-12-03T12:06:14.996Z,997.03
2017-12-03T12:07:21.684Z,996.96
2017-12-03T12:08:28.649Z,996.96
2017-12-03T12:09:35.201Z,996.95
2017-12-03T12:10:42.094Z,996.91
2017-12-03T12:11:49.000Z,996.95
2017-12-03T12:12:55.786Z,996.93
2017-12-03T12:14:02.785Z,996.87
2017-12-03T12:15:09.544Z,996.85
2017-12-03T12:16:16.326Z,996.84
2017-12-03T12:17:23.054Z,996.91
2017-12-03T12:18:29.856Z,996.90
2017-12-03T12:19:37.121Z,996.89
2017-12-03T12:20:43.804Z,996.93
2017-12-03T12:21:50.508Z,996.94
2017-12-03T12:22:57.188Z,996.94
2017-12-03T12:24:03.864Z,996.96
2017-12-03T12:25:10.528Z,996.93
2017-12-03T12:26:17.284Z,996.94
2017-12-03T12:27:23.956Z,996.87
2017-12-03T12:28:30.637Z,996.80
2017-12-03T12:29:37.800Z,996.80
2017-12-03T12:30:44.484Z,996.84
2017-12-03T12:31:51.185Z,996.81
2017-12-03T12:32:57.968Z,996.80
2017-12-03T12:34:04.695Z,996.74
2017-12-03T12:35:11.430Z,996.76
2017-12-03T12:36:18.332Z,996.76
2017-12-03T12:37:25.092Z,996.80
2017-12-03T12:38:31.877Z,996.74
2017-12-03T12:39:38.581Z,996.84
2017-12-03T12:40:45.348Z,996.81
2017-12-03T12:41:52.039Z,996.80
2017-12-03T12:42:58.801Z,996.75
2017-12-03T12:44:05.570Z,996.73
2017-12-03T12:45:12.290Z,996.82
2017-12-03T12:46:19.059Z,996.83
2017-12-03T12:47:25.798Z,996.82
2017-12-03T12:48:32.532Z,996.74
2017-12-03T12:49:39.243Z,996.77
2017-12-03T12:50:46.129Z,996.77
2017-12-03T12:51:52.918Z,996.70
2017-12-03T12:52:59.684Z,996.72
2017-12-03T12:54:06.420Z,996.72
2017-12-03T12:55:13.195Z,996.65
2017-12-03T12:56:19.942Z,996.65
2017-12-03T12:57:26.728Z,996.62
2017-12-03T12:58:33.423Z,996.64
2017-12-03T12:59:40.186Z,996.58
2017-12-03T13:00:46.948Z,996.58
2017-12-03T13:01:53.749Z,996.65
2017-12-03T13:03:00.437Z,996.67
2017-12-03T13:04:07.153Z,996.58
2017-12-03T13:05:13.849Z,996.58
2017-12-03T13:06:20.696Z,996.56
2017-12-03T13:07:27.574Z,996.58
2017-12-03T13:08:34.256Z,996.52
2017-12-03T13:09:41.004Z,996.57
2017-12-03T13:10:47.820Z,996.57
2017-12-03T13:11:54.952Z,996.57
2017-12-03T13:13:01.680Z,996.57
2017-12-03T13:14:08.397Z,996.62
2017-12-03T13:15:15.107Z,996.55
2017-12-03T13:16:21.834Z,996.61
2017-12-03T13:17:28.565Z,996.58
2017-12-03T13:18:35.353Z,996.61
2017-12-03T13:19:42.056Z,996.62
2017-12-03T13:20:48.748Z,996.52
2017-12-03T13:21:55.587Z,996.59
2017-12-03T13:23:02.321Z,996.53
2017-12-03T13:24:09.088Z,996.50
2017-12-03T13:25:15.784Z,996.55
2017-12-03T13:26:22.512Z,996.53
2017-12-03T13:27:29.385Z,996.59
2017-12-03T13:28:36.187Z,996.59
2017-12-03T13:29:42.871Z,996.56
2017-12-03T13:30:49.582Z,996.56
2017-12-03T13:31:56.310Z,996.50
2017-12-03T13:33:03.059Z,996.48
2017-12-03T13:34:09.749Z,996.47
2017-12-03T13:35:16.557Z,996.48
2017-12-03T13:36:23.258Z,996.49
2017-12-03T13:37:29.972Z,996.45
2017-12-03T13:38:36.724Z,996.38
2017-12-03T13:39:43.448Z,996.41
2017-12-03T13:40:50.149Z,996.41
2017-12-03T13:41:56.940Z,996.37
2017-12-03T13:43:03.625Z,996.39
2017-12-03T13:44:10.393Z,996.40
2017-12-03T13:45:17.108Z,996.38
2017-12-03T13:46:24.075Z,996.40
2017-12-03T13:47:30.800Z,996.39
2017-12-03T13:48:37.520Z,996.34
2017-12-03T13:49:44.317Z,996.42
2017-12-03T13:50:51.014Z,996.39
2017-12-03T13:51:57.863Z,996.43
2017-12-03T13:53:04.601Z,996.32